Time;durP1;ratioP1;P1;durP2;ratioP2;P2;SDS_P1;SDS_P2;PMS_P1;PMS_P2;Temp;Humidity;BMP_temperature;BMP_pressure;BME280_temperature;BME280_humidity;BME280_pressure;Samples;Min_cycle;Max_cycle;Signal;HPM_P1;HPM_P2
2022/10/08 00:00:15;;;;;;;;;;;;;;;65.44;0.23;101181.72;5039722;28;19921;-61
2022/10/08 00:02:41;;;;;;;;;;;;;;;66.10;0.21;101187.13;5041121;28;19917;-62
2022/10/08 00:05:08;;;;;;;;;;;;;;;67.33;0.00;101189.53;5064001;27;19920;-62
2022/10/08 00:07:34;;;;;;;;;;;;;;;64.16;0.82;101189.09;5041791;28;19993;-62
2022/10/08 00:10:00;;;;;;;;;;;;;;;63.45;0.56;101186.41;5050702;27;20020;-61
2022/10/08 00:12:26;;;;;;;;;;;;;;;64.48;0.56;101184.56;5037946;28;19929;-61
2022/10/08 00:14:53;;;;;;;;;;;;;;;59.73;2.11;101184.72;5045223;27;20414;-62
2022/10/08 00:17:19;;;;;;;;;;;;;;;60.81;1.85;101185.66;5043245;27;19925;-61
2022/10/08 00:19:45;;;;;;;;;;;;;;;61.80;1.95;101183.19;5039841;27;19928;-62
2022/10/08 00:22:12;;;;;;;;;;;;;;;61.61;1.58;101184.72;5041687;27;19936;-61
2022/10/08 00:24:39;;;;;;;;;;;;;;;60.58;2.47;101191.13;5038538;27;19921;-61
2022/10/08 00:27:05;;;;;;;;;;;;;;;61.79;1.72;101175.72;5044812;27;19921;-61
2022/10/08 00:29:32;;;;;;;;;;;;;;;61.85;0.73;101179.16;5041558;27;19928;-61
2022/10/08 00:31:58;;;;;;;;;;;;;;;61.66;1.79;101182.84;5051514;27;19965;-61
2022/10/08 00:34:24;;;;;;;;;;;;;;;62.21;1.44;101175.25;5043267;27;20294;-61
2022/10/08 00:36:52;;;;;;;;;;;;;;;62.85;0.87;101186.53;5041147;27;19924;-61
2022/10/08 00:39:20;;;;;;;;;;;;;;;63.09;0.86;101179.47;5042662;27;20286;-62
2022/10/08 00:41:48;;;;;;;;;;;;;;;60.27;2.62;101188.59;5047560;27;20363;-61
2022/10/08 00:44:33;;;;;;;;;;;;;;;57.04;4.07;101194.50;5052811;27;19926;-62
2022/10/08 00:46:59;;;;;;;;;;;;;;;57.94;3.27;101192.91;5040122;27;19925;-62
2022/10/08 00:49:25;;;;;;;;;;;;;;;55.97;4.05;101197.78;5039670;27;19925;-63
2022/10/08 00:51:54;;;;;;;;;;;;;;;55.72;4.35;101197.44;5044924;27;20020;-62
2022/10/08 00:54:21;;;;;;;;;;;;;;;56.01;4.15;101189.44;5042600;27;20512;-62
2022/10/08 00:56:51;;;;;;;;;;;;;;;55.50;5.13;101198.03;5040729;27;19981;-61
2022/10/08 00:59:19;;;;;;;;;;;;;;;55.02;4.74;101203.22;5040055;27;19928;-61
2022/10/08 01:01:45;;;;;;;;;;;;;;;54.89;4.63;101209.09;5049739;27;19925;-61
2022/10/08 01:04:12;;;;;;;;;;;;;;;54.59;4.73;101203.69;5046070;27;20400;-62
2022/10/08 01:06:48;;;;;;;;;;;;;;;54.40;5.39;101209.66;5046327;27;19925;-62
2022/10/08 01:09:18;;;;;;;;;;;;;;;54.07;5.84;101210.38;5047678;27;20308;-62
2022/10/08 01:12:10;;;;;;;;;;;;;;;53.77;5.30;101211.47;5047868;27;19928;-62
2022/10/08 01:14:38;;;;;;;;;;;;;;;53.47;5.99;101210.94;5024565;27;19921;-62
2022/10/08 01:17:23;;;;;;;;;;;;;;;53.27;5.49;101216.03;5043428;27;20519;-61
2022/10/08 01:20:03;;;;;;;;;;;;;;;52.95;6.35;101218.09;5050778;27;19924;-61
2022/10/08 01:22:48;;;;;;;;;;;;;;;52.41;6.09;101216.22;5044977;27;19929;-61
2022/10/08 01:25:39;;;;;;;;;;;;;;;51.90;6.21;101222.63;5052322;27;19976;-61
2022/10/08 01:28:37;;;;;;;;;;;;;;;51.39;6.53;101224.41;5042329;27;19928;-61
2022/10/08 01:31:07;;;;;;;;;;;;;;;51.68;6.83;101226.50;5066591;28;20314;-61
2022/10/08 01:33:41;;;;;;;;;;;;;;;51.62;7.09;101230.78;5048019;27;19953;-61
2022/10/08 01:36:09;;;;;;;;;;;;;;;51.74;7.32;101234.41;5051420;27;19919;-61
2022/10/08 01:38:39;;;;;;;;;;;;;;;51.70;6.83;101239.66;5053889;27;19920;-61
2022/10/08 01:41:07;;;;;;;;;;;;;;;51.67;6.89;101229.94;5050683;27;19928;-61
2022/10/08 01:43:35;;;;;;;;;;;;;;;51.63;7.44;101238.94;5053675;27;19917;-61
2022/10/08 01:46:08;;;;;;;;;;;;;;;51.55;7.02;101249.56;5060182;27;19921;-61
2022/10/08 01:48:37;;;;;;;;;;;;;;;51.49;6.75;101242.22;5048278;27;19960;-61
2022/10/08 01:51:11;;;;;;;;;;;;;;;51.51;7.08;101251.94;5056379;27;19928;-60
2022/10/08 01:53:39;;;;;;;;;;;;;;;51.30;7.77;101256.59;5048764;27;19921;-60
2022/10/08 01:56:08;;;;;;;;;;;;;;;51.36;7.09;101258.16;5060039;27;19929;-60
2022/10/08 01:58:46;;;;;;;;;;;;;;;51.28;7.74;101268.72;5042771;27;20001;-60
2022/10/08 02:01:35;;;;;;;;;;;;;;;51.29;7.33;101275.28;5049023;27;20000;-60
2022/10/08 02:06:51;;;;;;;;;;;;;;;51.06;7.13;101287.06;5046559;27;19929;-60
2022/10/08 02:09:17;;;;;;;;;;;;;;;50.92;7.57;101282.38;5045030;27;20024;-60
2022/10/08 02:11:43;;;;;;;;;;;;;;;50.98;6.88;101280.22;5056372;27;19920;-60
2022/10/08 02:14:10;;;;;;;;;;;;;;;51.13;7.21;101290.69;5052136;27;20019;-60
2022/10/08 02:16:39;;;;;;;;;;;;;;;51.19;7.22;101289.34;5050633;27;19921;-60
2022/10/08 02:19:11;;;;;;;;;;;;;;;51.12;6.97;101294.91;5042060;27;20058;-61
2022/10/08 02:21:39;;;;;;;;;;;;;;;51.03;7.87;101298.94;5047713;27;19921;-60
2022/10/08 02:24:12;;;;;;;;;;;;;;;50.84;7.80;101310.31;5046340;27;20012;-60
2022/10/08 02:26:43;;;;;;;;;;;;;;;50.81;7.32;101310.59;5047949;27;20375;-61
2022/10/08 02:29:21;;;;;;;;;;;;;;;50.91;7.17;101314.75;5039631;27;20436;-61
2022/10/08 02:31:50;;;;;;;;;;;;;;;50.89;7.27;101306.59;5047482;27;19928;-63
2022/10/08 02:34:37;;;;;;;;;;;;;;;50.76;7.18;101321.66;5055947;27;19928;-60
2022/10/08 02:37:09;;;;;;;;;;;;;;;50.66;7.59;101310.91;5045724;27;19965;-61
2022/10/08 02:39:37;;;;;;;;;;;;;;;50.55;7.38;101319.63;5043492;27;19920;-61
2022/10/08 02:42:07;;;;;;;;;;;;;;;50.49;7.80;101320.44;5051811;27;19941;-60
2022/10/08 02:44:37;;;;;;;;;;;;;;;50.42;7.54;101323.09;5048079;27;20004;-60
2022/10/08 02:47:07;;;;;;;;;;;;;;;50.33;7.54;101323.38;5064265;27;20330;-60
2022/10/08 02:49:40;;;;;;;;;;;;;;;50.34;8.06;101327.84;5043826;27;19925;-60
2022/10/08 02:52:08;;;;;;;;;;;;;;;50.34;8.32;101328.66;5063116;27;20013;-60
2022/10/08 02:54:36;;;;;;;;;;;;;;;50.31;8.04;101326.78;5050825;27;19927;-61
2022/10/08 02:57:06;;;;;;;;;;;;;;;50.19;8.40;101331.00;5058745;27;19964;-61
2022/10/08 02:59:32;;;;;;;;;;;;;;;50.24;7.62;101329.41;5043580;27;19927;-60
2022/10/08 03:02:01;;;;;;;;;;;;;;;50.20;7.86;101338.38;5066432;27;19959;-61
2022/10/08 03:04:33;;;;;;;;;;;;;;;50.15;7.93;101334.19;5040352;28;20023;-61
2022/10/08 03:07:00;;;;;;;;;;;;;;;50.01;8.23;101325.78;5043135;28;20372;-61
2022/10/08 03:09:30;;;;;;;;;;;;;;;49.94;7.86;101337.88;5043217;28;19916;-61
2022/10/08 03:11:56;;;;;;;;;;;;;;;49.94;8.24;101340.75;5046985;28;20365;-61
2022/10/08 03:14:24;;;;;;;;;;;;;;;49.96;8.34;101346.78;5044243;27;19923;-60
2022/10/08 03:16:51;;;;;;;;;;;;;;;49.85;7.88;101347.59;5044332;28;20432;-61
2022/10/08 03:19:17;;;;;;;;;;;;;;;49.81;8.23;101342.06;5042688;28;19924;-61
2022/10/08 03:21:45;;;;;;;;;;;;;;;49.78;8.30;101346.00;5043987;28;19947;-60
2022/10/08 03:24:12;;;;;;;;;;;;;;;49.65;8.80;101345.75;5044134;28;19978;-61
2022/10/08 03:26:38;;;;;;;;;;;;;;;49.93;8.52;101344.97;5049196;28;19921;-61
2022/10/08 03:29:05;;;;;;;;;;;;;;;49.94;8.35;101349.44;5043786;28;19928;-61
2022/10/08 03:31:31;;;;;;;;;;;;;;;49.87;8.51;101350.72;5041715;28;19932;-61
2022/10/08 03:33:58;;;;;;;;;;;;;;;49.94;7.93;101349.44;5057399;27;19931;-60
2022/10/08 03:36:24;;;;;;;;;;;;;;;49.97;8.67;101360.72;5133756;27;19920;-60
2022/10/08 03:38:51;;;;;;;;;;;;;;;49.93;8.62;101356.53;5133540;27;19916;-61
2022/10/08 03:41:17;;;;;;;;;;;;;;;49.82;8.06;101355.22;5076775;27;19921;-61
2022/10/08 03:43:44;;;;;;;;;;;;;;;49.79;8.91;101361.25;5047884;28;19917;-61
2022/10/08 03:46:11;;;;;;;;;;;;;;;49.72;8.49;101359.66;5069267;27;19977;-60
2022/10/08 03:48:38;;;;;;;;;;;;;;;49.73;9.02;101364.13;5062559;27;19923;-61
2022/10/08 03:51:09;;;;;;;;;;;;;;;49.62;8.53;101364.09;5119214;27;19921;-61
2022/10/08 03:53:36;;;;;;;;;;;;;;;49.38;9.08;101367.50;5073699;27;20019;-61
2022/10/08 03:56:03;;;;;;;;;;;;;;;49.41;8.56;101365.66;5063807;27;19924;-61
2022/10/08 03:58:30;;;;;;;;;;;;;;;49.38;9.13;101363.78;5070726;27;19925;-60
2022/10/08 04:00:57;;;;;;;;;;;;;;;49.37;8.72;101365.88;5125811;27;19924;-60
2022/10/08 04:03:24;;;;;;;;;;;;;;;49.32;8.80;101369.56;5093136;27;20318;-60
2022/10/08 04:05:50;;;;;;;;;;;;;;;49.38;9.05;101378.22;5137514;27;19921;-60
2022/10/08 04:08:17;;;;;;;;;;;;;;;49.34;9.16;101369.81;5079422;27;19924;-61
2022/10/08 04:10:43;;;;;;;;;;;;;;;49.38;9.05;101379.06;5069185;27;20325;-60
2022/10/08 04:13:09;;;;;;;;;;;;;;;49.31;9.38;101386.09;5082015;27;20033;-60
2022/10/08 04:15:35;;;;;;;;;;;;;;;49.29;9.43;101382.94;5073962;27;19962;-61
2022/10/08 04:18:02;;;;;;;;;;;;;;;49.29;8.70;101385.84;5088757;27;19920;-60
2022/10/08 04:20:28;;;;;;;;;;;;;;;49.32;9.42;101386.91;5075681;27;19917;-60
2022/10/08 04:22:54;;;;;;;;;;;;;;;49.25;9.29;101385.28;5090703;27;19928;-60
2022/10/08 04:25:21;;;;;;;;;;;;;;;49.19;9.22;101387.34;5073307;27;20380;-61
2022/10/08 04:27:48;;;;;;;;;;;;;;;49.11;8.81;101391.28;5093874;27;19919;-61
2022/10/08 04:30:15;;;;;;;;;;;;;;;49.08;9.29;101383.66;5113782;27;19924;-60
2022/10/08 04:32:41;;;;;;;;;;;;;;;49.08;9.40;101396.00;5070201;27;20020;-61
2022/10/08 04:35:08;;;;;;;;;;;;;;;49.01;8.92;101391.47;5144991;27;19922;-60
2022/10/08 04:37:34;;;;;;;;;;;;;;;48.95;9.39;101393.56;5112074;27;19917;-60
2022/10/08 04:40:00;;;;;;;;;;;;;;;48.94;9.20;101399.84;5074777;27;19931;-60
2022/10/08 04:42:26;;;;;;;;;;;;;;;48.75;9.85;101398.69;5070239;27;20007;-61
2022/10/08 04:44:53;;;;;;;;;;;;;;;48.67;9.47;101399.19;5131361;27;19928;-60
2022/10/08 04:47:22;;;;;;;;;;;;;;;48.63;9.28;101392.84;5096396;27;19923;-61
2022/10/08 04:49:48;;;;;;;;;;;;;;;48.59;9.99;101397.28;5088272;27;19927;-60
2022/10/08 04:52:17;;;;;;;;;;;;;;;48.60;10.22;101396.78;5064217;27;20366;-60
2022/10/08 04:54:44;;;;;;;;;;;;;;;48.58;9.89;101389.91;5054226;27;19966;-60
2022/10/08 04:57:10;;;;;;;;;;;;;;;48.63;9.95;101401.50;5064369;27;19963;-61
2022/10/08 04:59:36;;;;;;;;;;;;;;;48.55;10.22;101394.63;5107813;27;20329;-60
2022/10/08 05:02:03;;;;;;;;;;;;;;;48.42;10.77;101406.59;5080652;27;19920;-60
2022/10/08 05:04:29;;;;;;;;;;;;;;;48.55;10.13;101400.38;5136462;27;19943;-60
2022/10/08 05:06:55;;;;;;;;;;;;;;;48.56;10.54;101401.19;5140919;27;19919;-60
2022/10/08 05:09:22;;;;;;;;;;;;;;;48.56;9.91;101399.06;5105715;27;19919;-60
2022/10/08 05:11:49;;;;;;;;;;;;;;;48.49;10.03;101401.66;5118689;27;19919;-60
2022/10/08 05:14:16;;;;;;;;;;;;;;;48.50;10.04;101392.50;5071172;27;20462;-60
2022/10/08 05:16:42;;;;;;;;;;;;;;;48.42;9.94;101400.03;5138019;27;20273;-60
2022/10/08 05:19:08;;;;;;;;;;;;;;;48.28;10.66;101398.09;5087641;27;19923;-60
2022/10/08 05:21:34;;;;;;;;;;;;;;;48.32;10.70;101392.91;5099350;27;19924;-60
2022/10/08 05:24:02;;;;;;;;;;;;;;;48.30;10.03;101401.25;5120923;27;19919;-60
2022/10/08 05:26:30;;;;;;;;;;;;;;;48.23;10.50;101401.72;5066472;27;19920;-60
2022/10/08 05:28:57;;;;;;;;;;;;;;;48.16;10.79;101402.19;5079159;27;19988;-60
2022/10/08 05:31:24;;;;;;;;;;;;;;;48.09;10.43;101401.31;5108101;27;20003;-61
2022/10/08 05:33:51;;;;;;;;;;;;;;;48.06;10.61;101393.72;5112052;27;19952;-60
2022/10/08 05:36:20;;;;;;;;;;;;;;;48.10;10.53;101402.91;5152195;27;20378;-60
2022/10/08 05:38:47;;;;;;;;;;;;;;;48.27;10.45;101408.84;5056550;27;20252;-60
2022/10/08 05:41:15;;;;;;;;;;;;;;;48.17;10.72;101403.75;5116742;27;19972;-61
2022/10/08 05:43:42;;;;;;;;;;;;;;;48.23;10.60;101413.25;5111329;27;19971;-60
2022/10/08 05:46:10;;;;;;;;;;;;;;;48.19;10.27;101406.91;5071666;27;19977;-60
2022/10/08 05:48:36;;;;;;;;;;;;;;;48.22;10.20;101412.44;5088885;27;19920;-61
2022/10/08 05:51:10;;;;;;;;;;;;;;;48.20;10.08;101414.25;5069815;27;19977;-60
2022/10/08 05:53:37;;;;;;;;;;;;;;;48.07;10.58;101401.06;5095295;27;19920;-60
2022/10/08 05:56:05;;;;;;;;;;;;;;;48.02;10.63;101410.44;5064455;27;19917;-60
2022/10/08 05:58:33;;;;;;;;;;;;;;;47.98;10.34;101409.09;5085522;27;19928;-61
2022/10/08 06:01:01;;;;;;;;;;;;;;;47.95;10.54;101410.94;5069913;27;19923;-60
2022/10/08 06:03:27;;;;;;;;;;;;;;;47.95;10.24;101408.03;5115665;27;19945;-60
2022/10/08 06:05:54;;;;;;;;;;;;;;;47.99;10.58;101410.69;5148350;27;20392;-60
2022/10/08 06:08:20;;;;;;;;;;;;;;;47.85;10.91;101397.94;5069058;27;19925;-60
2022/10/08 06:10:54;;;;;;;;;;;;;;;47.58;10.92;101407.09;5116876;27;20006;-60
2022/10/08 06:13:21;;;;;;;;;;;;;;;47.75;10.83;101402.28;5110719;27;19970;-60
2022/10/08 06:15:54;;;;;;;;;;;;;;;47.77;10.73;101411.25;5129272;27;19911;-60
2022/10/08 06:18:20;;;;;;;;;;;;;;;47.75;10.52;101408.06;5068493;27;19924;-60
2022/10/08 06:20:46;;;;;;;;;;;;;;;47.74;10.44;101407.28;5079285;27;19917;-60
2022/10/08 06:23:13;;;;;;;;;;;;;;;47.75;10.66;101410.94;5085290;27;20014;-60
2022/10/08 06:25:39;;;;;;;;;;;;;;;47.66;11.05;101411.91;5083161;27;19973;-60
2022/10/08 06:28:05;;;;;;;;;;;;;;;47.75;10.57;101413.81;5111043;27;19921;-60
2022/10/08 06:30:31;;;;;;;;;;;;;;;47.76;11.06;101413.34;5136838;27;20343;-60
2022/10/08 06:32:57;;;;;;;;;;;;;;;47.78;10.82;101409.94;5079725;27;19942;-60
2022/10/08 06:35:24;;;;;;;;;;;;;;;47.84;11.09;101407.91;5126640;27;19917;-60
2022/10/08 06:37:50;;;;;;;;;;;;;;;47.66;11.19;101414.00;5117839;27;20075;-60
2022/10/08 06:40:16;;;;;;;;;;;;;;;47.02;11.25;101415.81;5069549;27;19917;-61
2022/10/08 06:42:43;;;;;;;;;;;;;;;46.92;11.83;101417.25;5052849;27;19923;-60
2022/10/08 06:45:09;;;;;;;;;;;;;;;47.18;11.14;101417.34;5118935;27;20293;-60
2022/10/08 06:47:35;;;;;;;;;;;;;;;47.54;10.58;101416.75;5106325;27;19923;-61
2022/10/08 06:50:02;;;;;;;;;;;;;;;47.59;10.62;101406.63;5079754;27;19916;-60
2022/10/08 06:52:28;;;;;;;;;;;;;;;47.65;10.32;101406.66;5136470;27;19964;-60
2022/10/08 06:54:54;;;;;;;;;;;;;;;47.54;10.58;101416.75;5076880;27;19915;-60
2022/10/08 06:57:21;;;;;;;;;;;;;;;47.53;10.58;101420.94;5108694;27;19925;-60
2022/10/08 06:59:47;;;;;;;;;;;;;;;47.54;10.95;101421.72;5050885;27;19920;-60
2022/10/08 07:02:13;;;;;;;;;;;;;;;47.55;10.48;101412.56;5056058;27;20289;-60
2022/10/08 07:04:39;;;;;;;;;;;;;;;47.41;11.13;101421.31;5142232;27;19968;-60
2022/10/08 07:07:06;;;;;;;;;;;;;;;47.23;10.83;101416.66;5119175;27;19925;-60
2022/10/08 07:09:32;;;;;;;;;;;;;;;47.07;11.29;101425.84;5097546;27;20423;-61
2022/10/08 07:11:58;;;;;;;;;;;;;;;47.04;11.46;101418.97;5123754;27;19915;-61
2022/10/08 07:14:24;;;;;;;;;;;;;;;47.03;10.98;101423.16;5066691;27;20376;-60
2022/10/08 07:16:51;;;;;;;;;;;;;;;46.91;11.17;101418.56;5129701;27;20284;-60
2022/10/08 07:19:17;;;;;;;;;;;;;;;46.85;11.63;101418.47;5092932;27;20021;-60
2022/10/08 07:21:43;;;;;;;;;;;;;;;46.87;11.57;101421.66;5093599;27;19933;-61
2022/10/08 07:24:09;;;;;;;;;;;;;;;46.94;11.62;101418.34;5130561;27;19923;-61
2022/10/08 07:26:36;;;;;;;;;;;;;;;46.87;11.44;101409.34;5067799;27;19966;-60
2022/10/08 07:29:02;;;;;;;;;;;;;;;46.82;11.63;101407.16;5127579;27;19915;-60
2022/10/08 07:31:30;;;;;;;;;;;;;;;46.74;11.29;101418.28;5104084;27;19986;-60
2022/10/08 07:33:56;;;;;;;;;;;;;;;46.66;11.23;101414.25;5113778;27;19938;-61
2022/10/08 07:36:23;;;;;;;;;;;;;;;46.60;11.41;101419.91;5147265;27;20463;-61
2022/10/08 07:38:57;;;;;;;;;;;;;;;46.49;11.26;101428.38;5073282;27;19919;-60
2022/10/08 07:41:24;;;;;;;;;;;;;;;45.54;12.34;101448.81;5114560;27;19942;-60
2022/10/08 07:43:51;;;;;;;;;;;;;;;46.15;12.52;101464.41;5087607;27;20377;-61
2022/10/08 07:46:18;;;;;;;;;;;;;;;46.44;12.43;101454.16;5135534;27;19926;-60
2022/10/08 07:48:44;;;;;;;;;;;;;;;46.16;12.27;101463.09;5068913;27;19919;-60
2022/10/08 07:51:18;;;;;;;;;;;;;;;46.50;12.30;101443.53;5051328;27;19932;-60
2022/10/08 07:53:44;;;;;;;;;;;;;;;46.66;11.71;101452.44;5112707;27;19919;-60
2022/10/08 07:56:12;;;;;;;;;;;;;;;46.70;12.08;101457.22;5072699;27;20366;-60
2022/10/08 07:58:38;;;;;;;;;;;;;;;46.70;11.86;101458.00;5078888;27;19927;-60
2022/10/08 08:01:05;;;;;;;;;;;;;;;46.67;11.73;101458.97;5120922;27;19917;-60
2022/10/08 08:03:32;;;;;;;;;;;;;;;46.72;12.10;101461.16;5098116;27;20385;-60
2022/10/08 08:06:06;;;;;;;;;;;;;;;46.73;11.71;101457.00;5149790;27;19926;-60
2022/10/08 08:08:33;;;;;;;;;;;;;;;46.72;12.23;101464.03;5070803;27;19928;-60
2022/10/08 08:11:00;;;;;;;;;;;;;;;46.67;11.82;101451.13;5133374;27;19919;-60
2022/10/08 08:13:30;;;;;;;;;;;;;;;46.61;11.97;101449.47;5107966;27;19936;-60
2022/10/08 08:15:57;;;;;;;;;;;;;;;46.61;12.00;101438.75;5064917;27;19968;-60
2022/10/08 08:18:24;;;;;;;;;;;;;;;46.68;12.34;101440.41;5100066;27;19928;-60
2022/10/08 08:20:56;;;;;;;;;;;;;;;46.67;12.05;101439.63;5088872;27;19921;-61
2022/10/08 08:23:22;;;;;;;;;;;;;;;46.61;12.29;101443.72;5040184;28;19921;-60
2022/10/08 08:25:48;;;;;;;;;;;;;;;46.68;12.36;101437.53;5118067;27;20332;-60
2022/10/08 08:28:15;;;;;;;;;;;;;;;46.53;12.21;101431.84;5071755;27;19921;-60
2022/10/08 08:30:41;;;;;;;;;;;;;;;46.53;12.20;101431.84;5139565;27;19921;-60
2022/10/08 08:33:07;;;;;;;;;;;;;;;46.51;12.60;101427.91;5088871;27;19919;-60
2022/10/08 08:35:33;;;;;;;;;;;;;;;46.42;12.44;101419.38;5146744;27;20326;-60
2022/10/08 08:38:00;;;;;;;;;;;;;;;46.40;12.32;101424.84;5082495;27;19966;-60
2022/10/08 08:40:27;;;;;;;;;;;;;;;46.35;12.82;101415.59;5077414;27;19916;-61
2022/10/08 08:42:54;;;;;;;;;;;;;;;46.17;13.00;101421.56;5130870;27;19966;-61
2022/10/08 08:45:28;;;;;;;;;;;;;;;46.26;12.57;101424.31;5097791;27;19974;-60
2022/10/08 08:47:59;;;;;;;;;;;;;;;46.26;12.92;101423.53;5086465;27;19921;-60
2022/10/08 08:50:30;;;;;;;;;;;;;;;46.31;12.40;101420.72;5139378;27;19923;-60
2022/10/08 08:52:57;;;;;;;;;;;;;;;46.20;13.00;101419.78;5080750;27;19919;-61
2022/10/08 08:55:32;;;;;;;;;;;;;;;46.05;13.10;101414.81;5109869;27;20294;-60
2022/10/08 08:58:11;;;;;;;;;;;;;;;46.12;12.66;101419.38;5112879;27;19938;-59
2022/10/08 09:00:40;;;;;;;;;;;;;;;46.06;12.65;101415.63;5138265;27;19962;-60
2022/10/08 09:03:13;;;;;;;;;;;;;;;46.05;12.73;101419.78;5088297;27;19979;-59
2022/10/08 09:05:41;;;;;;;;;;;;;;;46.00;12.82;101423.34;5148272;27;19971;-60
2022/10/08 09:08:14;;;;;;;;;;;;;;;45.75;13.14;101418.94;5076502;27;20373;-60
2022/10/08 09:10:58;;;;;;;;;;;;;;;45.66;13.50;101419.84;5092228;27;19958;-61
2022/10/08 09:13:27;;;;;;;;;;;;;;;45.66;13.49;101410.44;5063296;27;19943;-61
2022/10/08 09:15:54;;;;;;;;;;;;;;;45.66;13.72;101416.97;5111226;27;19925;-61
2022/10/08 09:18:20;;;;;;;;;;;;;;;45.54;13.50;101414.34;5115830;27;19921;-60
2022/10/08 09:20:47;;;;;;;;;;;;;;;45.49;13.31;101412.94;5137608;27;19920;-61
2022/10/08 09:23:17;;;;;;;;;;;;;;;45.57;13.60;101410.47;5096026;27;19926;-61
2022/10/08 09:25:50;;;;;;;;;;;;;;;45.56;13.60;101412.56;5095219;27;20372;-60
2022/10/08 09:28:41;;;;;;;;;;;;;;;45.44;13.25;101410.78;5075736;27;20300;-61
2022/10/08 09:31:29;;;;;;;;;;;;;;;45.50;13.88;101411.66;5098707;27;19927;-60
2022/10/08 09:33:55;;;;;;;;;;;;;;;45.56;13.54;101415.44;5079154;27;20387;-60
2022/10/08 09:36:35;;;;;;;;;;;;;;;45.62;13.13;101404.84;5093007;27;19924;-60
2022/10/08 09:39:03;;;;;;;;;;;;;;;45.57;13.77;101407.59;5080832;27;19960;-61
2022/10/08 09:41:29;;;;;;;;;;;;;;;45.57;13.76;101405.53;5072419;27;19921;-61
2022/10/08 09:44:14;;;;;;;;;;;;;;;45.61;13.26;101397.53;5072386;27;19920;-61
2022/10/08 09:46:40;;;;;;;;;;;;;;;45.66;13.74;101391.13;5087826;27;19920;-60
2022/10/08 09:49:19;;;;;;;;;;;;;;;45.52;13.40;101394.72;5080386;27;19917;-61
2022/10/08 09:51:46;;;;;;;;;;;;;;;45.51;14.14;101404.63;5147623;27;20006;-61
2022/10/08 09:54:15;;;;;;;;;;;;;;;45.50;13.77;101403.03;5073435;27;19985;-60
2022/10/08 09:56:41;;;;;;;;;;;;;;;45.45;13.42;101400.88;5128077;27;20015;-60
2022/10/08 09:59:14;;;;;;;;;;;;;;;45.50;13.79;101391.56;5129120;27;20292;-60
2022/10/08 10:01:45;;;;;;;;;;;;;;;45.59;13.82;101388.59;5096259;27;19982;-61
2022/10/08 10:04:18;;;;;;;;;;;;;;;45.68;13.29;101391.41;5069329;27;20424;-61
2022/10/08 10:06:49;;;;;;;;;;;;;;;45.65;13.92;101389.53;5053606;27;20288;-61
2022/10/08 10:09:24;;;;;;;;;;;;;;;45.54;14.05;101391.38;5114213;27;19921;-61
2022/10/08 10:11:54;;;;;;;;;;;;;;;45.54;13.97;101392.16;5109784;27;20011;-61
2022/10/08 10:14:23;;;;;;;;;;;;;;;45.46;13.52;101382.34;5067819;27;19960;-61
2022/10/08 10:16:55;;;;;;;;;;;;;;;45.08;13.78;101388.88;5132964;27;20323;-61
2022/10/08 10:19:23;;;;;;;;;;;;;;;45.35;13.92;101385.78;5097332;27;19923;-61
2022/10/08 10:21:50;;;;;;;;;;;;;;;45.43;13.93;101387.00;5089562;27;19995;-62
2022/10/08 10:24:29;;;;;;;;;;;;;;;45.20;13.88;101400.06;5136584;27;20408;-61
2022/10/08 10:27:00;;;;;;;;;;;;;;;45.40;13.79;101399.44;5062873;27;19919;-60
2022/10/08 10:29:31;;;;;;;;;;;;;;;45.02;14.06;101411.69;5063717;27;19943;-61
2022/10/08 10:32:02;;;;;;;;;;;;;;;45.00;14.37;101416.34;5051192;28;19920;-60
2022/10/08 10:34:29;;;;;;;;;;;;;;;45.17;14.05;101417.47;5050835;28;19929;-61
2022/10/08 10:37:00;;;;;;;;;;;;;;;44.80;14.77;101411.16;5051378;27;19916;-61
2022/10/08 10:39:42;;;;;;;;;;;;;;;45.01;14.54;101401.50;5051014;28;19967;-61
2022/10/08 10:42:18;;;;;;;;;;;;;;;45.30;14.59;101428.75;5050807;28;20392;-61
2022/10/08 10:44:50;;;;;;;;;;;;;;;44.59;15.30;101433.13;5050678;28;19921;-60
2022/10/08 10:47:19;;;;;;;;;;;;;;;44.77;15.37;101423.63;5050873;28;19921;-60
2022/10/08 10:49:45;;;;;;;;;;;;;;;44.85;15.75;101422.75;5050747;28;19916;-60
2022/10/08 10:52:14;;;;;;;;;;;;;;;45.01;15.84;101427.31;5050903;28;19929;-60
2022/10/08 10:55:02;;;;;;;;;;;;;;;44.76;15.76;101422.03;5050661;28;19917;-61
2022/10/08 10:57:37;;;;;;;;;;;;;;;44.96;15.47;101435.81;5050726;28;19925;-60
2022/10/08 11:00:05;;;;;;;;;;;;;;;45.04;15.74;101439.91;5048628;28;19928;-60
2022/10/08 11:02:54;;;;;;;;;;;;;;;44.64;16.12;101434.53;5050577;28;19923;-60
2022/10/08 11:05:30;;;;;;;;;;;;;;;44.87;16.05;101433.78;5050642;28;19920;-61
2022/10/08 11:08:15;;;;;;;;;;;;;;;44.69;16.16;101430.97;5050440;28;19920;-61
2022/10/08 11:11:05;;;;;;;;;;;;;;;44.84;16.04;101434.72;5050355;28;20458;-60
2022/10/08 11:13:37;;;;;;;;;;;;;;;44.53;16.34;101440.81;5050371;28;19979;-61
2022/10/08 11:16:15;;;;;;;;;;;;;;;43.72;17.62;101446.19;5050351;28;20405;-60
2022/10/08 11:18:47;;;;;;;;;;;;;;;44.01;16.93;101449.34;5050263;28;19925;-60
2022/10/08 11:21:16;;;;;;;;;;;;;;;43.56;17.83;101449.34;5050338;28;19928;-61
2022/10/08 11:23:45;;;;;;;;;;;;;;;44.17;16.94;101447.41;5050034;28;20290;-61
2022/10/08 11:26:24;;;;;;;;;;;;;;;44.53;16.59;101441.59;5050182;28;19959;-61
2022/10/08 11:28:56;;;;;;;;;;;;;;;44.23;16.89;101451.22;5049375;28;19964;-60
2022/10/08 11:31:32;;;;;;;;;;;;;;;43.98;17.17;101453.13;5050168;28;20552;-60
2022/10/08 11:33:59;;;;;;;;;;;;;;;43.88;17.46;101453.66;5050237;28;19920;-61
2022/10/08 11:36:46;;;;;;;;;;;;;;;43.49;17.96;101450.47;5050217;28;19957;-61
2022/10/08 11:39:13;;;;;;;;;;;;;;;43.36;18.12;101450.59;5049197;28;19921;-61
2022/10/08 11:41:42;;;;;;;;;;;;;;;43.42;18.18;101460.16;5050340;28;19913;-60
2022/10/08 11:44:09;;;;;;;;;;;;;;;43.01;18.61;101460.69;5050003;28;19921;-60
2022/10/08 11:46:35;;;;;;;;;;;;;;;43.43;17.96;101452.34;5049834;28;19925;-60
2022/10/08 11:49:11;;;;;;;;;;;;;;;42.82;18.75;101466.31;5049909;28;19929;-61
2022/10/08 11:51:38;;;;;;;;;;;;;;;42.54;19.27;101468.25;5049736;28;19924;-62
2022/10/08 11:54:05;;;;;;;;;;;;;;;43.31;18.18;101459.84;5049860;28;19924;-60
2022/10/08 11:56:32;;;;;;;;;;;;;;;43.53;17.98;101467.47;5049693;28;20003;-60
2022/10/08 11:59:01;;;;;;;;;;;;;;;43.35;18.21;101477.66;5049071;28;19917;-60
2022/10/08 12:01:27;;;;;;;;;;;;;;;43.90;17.57;101474.03;5049828;28;19956;-60
2022/10/08 12:04:08;;;;;;;;;;;;;;;44.09;16.97;101480.53;5049657;28;19917;-60
2022/10/08 12:06:35;;;;;;;;;;;;;;;44.00;16.92;101479.28;5049694;28;20338;-61
2022/10/08 12:09:03;;;;;;;;;;;;;;;43.97;17.06;101479.41;5049550;28;19925;-60
2022/10/08 12:11:34;;;;;;;;;;;;;;;43.97;17.28;101488.81;5049770;28;19921;-61
2022/10/08 12:14:18;;;;;;;;;;;;;;;44.04;17.33;101490.56;5049618;28;20370;-60
2022/10/08 12:16:47;;;;;;;;;;;;;;;43.87;17.33;101480.72;5049609;28;20397;-60
2022/10/08 12:19:34;;;;;;;;;;;;;;;44.03;17.28;101482.44;5049526;28;19961;-61
2022/10/08 12:22:03;;;;;;;;;;;;;;;44.19;17.17;101485.00;5049728;28;19928;-60
2022/10/08 12:24:38;;;;;;;;;;;;;;;44.29;17.52;101480.81;5049258;28;20011;-60
2022/10/08 12:27:17;;;;;;;;;;;;;;;44.04;17.30;101484.81;5049398;28;19921;-60
2022/10/08 12:29:54;;;;;;;;;;;;;;;44.13;17.06;101481.97;5048679;28;19932;-60
2022/10/08 12:32:25;;;;;;;;;;;;;;;44.11;17.00;101472.25;5049551;28;19981;-60
2022/10/08 12:34:52;;;;;;;;;;;;;;;44.24;17.19;101478.59;5049308;28;19925;-60
2022/10/08 12:37:27;;;;;;;;;;;;;;;44.21;16.97;101477.50;5049309;27;19962;-61
2022/10/08 12:39:54;;;;;;;;;;;;;;;44.22;17.24;101481.97;5049210;28;19921;-60
2022/10/08 12:42:29;;;;;;;;;;;;;;;44.26;17.13;101481.78;5049393;28;20390;-60
2022/10/08 12:45:05;;;;;;;;;;;;;;;44.19;17.00;101485.00;5049157;28;19975;-60
2022/10/08 12:47:46;;;;;;;;;;;;;;;44.26;16.82;101490.38;5049350;28;19925;-60
2022/10/08 12:50:18;;;;;;;;;;;;;;;44.30;16.48;101493.88;5049563;27;19974;-60
2022/10/08 12:52:45;;;;;;;;;;;;;;;44.21;17.49;101496.78;5052426;28;19921;-60
2022/10/08 12:55:16;;;;;;;;;;;;;;;44.26;17.15;101493.25;5052690;28;19920;-60